Time;durP1;ratioP1;P1;durP2;ratioP2;P2;SDS_P1;SDS_P2;PMS_P1;PMS_P2;Temp;Humidity;BMP_temperature;BMP_pressure;BME280_temperature;BME280_humidity;BME280_pressure;Samples;Min_cycle;Max_cycle;Signal;HPM_P1;HPM_P2
2022/01/10 00:02:21;;;;;;;;;;;;;;;2.28;100.00;100643.88;4992179;28;19918;-74
2022/01/10 00:04:46;;;;;;;;;;;;;;;2.22;100.00;100646.00;4972863;28;20405;-75
2022/01/10 00:07:12;;;;;;;;;;;;;;;2.24;100.00;100649.31;4967648;28;19925;-74
2022/01/10 00:09:37;;;;;;;;;;;;;;;2.23;100.00;100652.84;4971492;28;19926;-74
2022/01/10 00:12:03;;;;;;;;;;;;;;;2.16;100.00;100649.81;4986881;28;19960;-75
2022/01/10 00:14:28;;;;;;;;;;;;;;;2.07;100.00;100653.81;4986612;28;20073;-74
2022/01/10 00:16:54;;;;;;;;;;;;;;;2.06;100.00;100659.06;4983410;28;19914;-74
2022/01/10 00:19:20;;;;;;;;;;;;;;;2.12;100.00;100666.44;4997227;28;19960;-75
2022/01/10 00:21:45;;;;;;;;;;;;;;;2.04;100.00;100668.69;4964013;28;19924;-74
2022/01/10 00:24:11;;;;;;;;;;;;;;;1.94;100.00;100668.38;4975533;28;19917;-75
2022/01/10 00:26:36;;;;;;;;;;;;;;;1.86;100.00;100673.19;4970863;28;19924;-75
2022/01/10 00:29:02;;;;;;;;;;;;;;;1.83;100.00;100679.41;4986887;28;19917;-76
2022/01/10 00:31:28;;;;;;;;;;;;;;;1.82;100.00;100677.72;4983522;28;19937;-74
2022/01/10 00:33:53;;;;;;;;;;;;;;;1.79;100.00;100684.81;4989341;28;19940;-75
2022/01/10 00:36:18;;;;;;;;;;;;;;;1.71;100.00;100696.47;4963999;28;19913;-75
2022/01/10 00:38:44;;;;;;;;;;;;;;;1.68;100.00;100701.00;4997022;28;20397;-76
2022/01/10 00:41:10;;;;;;;;;;;;;;;1.67;100.00;100702.72;4995794;28;20511;-75
2022/01/10 00:43:40;;;;;;;;;;;;;;;1.69;100.00;100705.22;4974605;28;19917;-75
2022/01/10 00:46:06;;;;;;;;;;;;;;;1.80;100.00;100707.19;4987298;28;19918;-75
2022/01/10 00:48:31;;;;;;;;;;;;;;;1.87;100.00;100713.66;4987234;28;19924;-73
2022/01/10 00:50:57;;;;;;;;;;;;;;;1.88;100.00;100713.56;4961633;28;19984;-75
2022/01/10 00:53:25;;;;;;;;;;;;;;;1.86;100.00;100723.16;4976092;28;19937;-75
2022/01/10 00:55:50;;;;;;;;;;;;;;;1.88;100.00;100717.91;4988555;28;20068;-73
2022/01/10 00:58:16;;;;;;;;;;;;;;;1.91;100.00;100730.66;4986342;28;20439;-74
2022/01/10 01:00:42;;;;;;;;;;;;;;;1.88;100.00;100731.66;4987485;28;19922;-75
2022/01/10 01:03:07;;;;;;;;;;;;;;;1.88;100.00;100738.59;4956596;28;20475;-74
2022/01/10 01:05:38;;;;;;;;;;;;;;;1.85;100.00;100746.56;4960424;28;19928;-75
2022/01/10 01:08:06;;;;;;;;;;;;;;;1.82;100.00;100751.91;4980832;28;19989;-74
2022/01/10 01:11:03;;;;;;;;;;;;;;;1.74;100.00;100755.75;4990361;28;19918;-75
2022/01/10 01:13:29;;;;;;;;;;;;;;;1.65;100.00;100764.06;4967926;28;20535;-75
2022/01/10 01:16:29;;;;;;;;;;;;;;;1.66;100.00;100764.91;4994747;28;19922;-76
2022/01/10 01:19:07;;;;;;;;;;;;;;;1.63;100.00;100765.88;4969866;28;19922;-74
2022/01/10 01:24:12;;;;;;;;;;;;;;;1.70;100.00;100782.72;4991646;28;19960;-76
2022/01/10 01:26:39;;;;;;;;;;;;;;;1.67;100.00;100798.41;4979761;28;19918;-74
2022/01/10 01:29:06;;;;;;;;;;;;;;;1.68;100.00;100797.50;4971592;28;20256;-74
2022/01/10 01:31:31;;;;;;;;;;;;;;;1.66;100.00;100803.69;4986161;28;20053;-75
2022/01/10 01:33:56;;;;;;;;;;;;;;;1.66;100.00;100807.09;4970409;28;20593;-74
2022/01/10 01:36:24;;;;;;;;;;;;;;;1.69;100.00;100819.00;4984422;28;19918;-75
2022/01/10 01:38:51;;;;;;;;;;;;;;;1.74;100.00;100832.53;4951501;28;19917;-74
2022/01/10 01:43:48;;;;;;;;;;;;;;;1.93;100.00;100843.47;4955633;28;20455;-75
2022/01/10 01:46:15;;;;;;;;;;;;;;;1.89;100.00;100854.09;4959541;28;20407;-74
2022/01/10 01:48:41;;;;;;;;;;;;;;;1.93;100.00;100856.41;4970029;28;19993;-74
2022/01/10 01:51:07;;;;;;;;;;;;;;;1.92;100.00;100862.50;4968749;28;20029;-75
2022/01/10 01:53:33;;;;;;;;;;;;;;;2.00;100.00;100863.81;4994818;28;20001;-74
2022/01/10 01:55:58;;;;;;;;;;;;;;;1.97;100.00;100866.59;4968854;28;19917;-75
2022/01/10 01:58:25;;;;;;;;;;;;;;;1.98;100.00;100873.41;4970117;28;19922;-75
2022/01/10 02:00:51;;;;;;;;;;;;;;;2.04;100.00;100876.50;4954681;28;19921;-75
2022/01/10 02:03:16;;;;;;;;;;;;;;;2.03;100.00;100884.34;4971808;28;19921;-75
2022/01/10 02:05:52;;;;;;;;;;;;;;;2.07;100.00;100884.09;4977253;28;19918;-75
2022/01/10 02:08:18;;;;;;;;;;;;;;;2.08;100.00;100885.75;4976715;28;19928;-75
2022/01/10 02:10:43;;;;;;;;;;;;;;;2.12;100.00;100901.91;4968666;28;19917;-76
2022/01/10 02:13:09;;;;;;;;;;;;;;;2.05;100.00;100904.00;4971378;28;19918;-75
2022/01/10 02:15:51;;;;;;;;;;;;;;;2.11;100.00;100908.00;4995066;28;19925;-75
2022/01/10 02:18:20;;;;;;;;;;;;;;;2.07;100.00;100907.38;4992237;28;19988;-75
2022/01/10 02:20:50;;;;;;;;;;;;;;;2.13;100.00;100914.78;4973815;28;19914;-76
2022/01/10 02:23:16;;;;;;;;;;;;;;;2.09;100.00;100917.63;4948550;28;19996;-77
2022/01/10 02:25:52;;;;;;;;;;;;;;;2.13;100.00;100924.31;4989074;28;19925;-75
2022/01/10 02:28:23;;;;;;;;;;;;;;;2.13;100.00;100935.47;4972881;28;19924;-75
2022/01/10 02:30:55;;;;;;;;;;;;;;;2.16;100.00;100939.63;4971940;28;19917;-76
2022/01/10 02:33:21;;;;;;;;;;;;;;;2.15;100.00;100938.00;4985456;28;19918;-75
2022/01/10 02:35:58;;;;;;;;;;;;;;;2.11;100.00;100946.81;4990949;28;19918;-75
2022/01/10 02:38:24;;;;;;;;;;;;;;;2.18;100.00;100947.31;4984266;28;19921;-75
2022/01/10 02:40:52;;;;;;;;;;;;;;;2.14;100.00;100950.06;4958080;28;20032;-74
2022/01/10 02:43:18;;;;;;;;;;;;;;;2.18;100.00;100953.31;4970874;28;19924;-74
2022/01/10 02:45:45;;;;;;;;;;;;;;;2.14;100.00;100957.00;4970654;28;19972;-75
2022/01/10 02:48:10;;;;;;;;;;;;;;;2.21;100.00;100958.34;4996320;28;19918;-73
2022/01/10 02:50:36;;;;;;;;;;;;;;;2.14;100.00;100970.78;4973897;28;20032;-75
2022/01/10 02:53:01;;;;;;;;;;;;;;;2.14;100.00;100975.13;4993633;28;20400;-74
2022/01/10 02:55:27;;;;;;;;;;;;;;;2.14;100.00;100986.31;4988758;28;19972;-75
2022/01/10 02:57:53;;;;;;;;;;;;;;;2.17;100.00;100989.63;4991806;28;19913;-75
2022/01/10 03:00:21;;;;;;;;;;;;;;;2.14;100.00;100998.41;4969557;28;19909;-74
2022/01/10 03:02:51;;;;;;;;;;;;;;;2.11;100.00;100993.41;4976602;28;19910;-77
2022/01/10 03:05:18;;;;;;;;;;;;;;;2.14;100.00;101003.59;4982802;28;19921;-74
2022/01/10 03:07:44;;;;;;;;;;;;;;;2.12;100.00;101006.25;4960107;28;19918;-74
2022/01/10 03:10:10;;;;;;;;;;;;;;;2.15;100.00;101010.44;4968979;28;19913;-75
2022/01/10 03:12:36;;;;;;;;;;;;;;;2.18;100.00;101015.44;4985850;28;19917;-75
2022/01/10 03:15:03;;;;;;;;;;;;;;;2.20;100.00;101023.13;4986805;28;19918;-73
2022/01/10 03:17:29;;;;;;;;;;;;;;;2.19;100.00;101022.28;4999926;28;20010;-76
2022/01/10 03:19:55;;;;;;;;;;;;;;;2.19;100.00;101024.88;4999445;28;19945;-74
2022/01/10 03:22:20;;;;;;;;;;;;;;;2.19;100.00;101032.66;4995860;28;19914;-75
2022/01/10 03:24:46;;;;;;;;;;;;;;;2.18;100.00;101040.50;4981357;28;20384;-74
2022/01/10 03:27:12;;;;;;;;;;;;;;;2.19;100.00;101048.19;4988598;28;19917;-75
2022/01/10 03:29:37;;;;;;;;;;;;;;;2.20;100.00;101049.84;4985811;28;19921;-74
2022/01/10 03:32:05;;;;;;;;;;;;;;;2.20;100.00;101052.41;4971054;28;20459;-75
2022/01/10 03:34:31;;;;;;;;;;;;;;;2.22;100.00;101057.50;4986630;28;19926;-75
2022/01/10 03:36:56;;;;;;;;;;;;;;;2.25;100.00;101068.53;4982755;28;19922;-75
2022/01/10 03:39:23;;;;;;;;;;;;;;;2.25;100.00;101067.72;4967425;28;20081;-75
2022/01/10 03:41:49;;;;;;;;;;;;;;;2.30;100.00;101066.53;4984733;28;20387;-75
2022/01/10 03:44:14;;;;;;;;;;;;;;;2.29;100.00;101067.44;4979967;28;20517;-75
2022/01/10 03:46:40;;;;;;;;;;;;;;;2.35;100.00;101074.03;4985532;28;19914;-74
2022/01/10 03:49:07;;;;;;;;;;;;;;;2.34;100.00;101078.38;4953120;28;19981;-75
2022/01/10 03:51:33;;;;;;;;;;;;;;;2.36;100.00;101087.84;4972690;28;19921;-74
2022/01/10 03:53:59;;;;;;;;;;;;;;;2.46;100.00;101096.75;4975411;28;19925;-74
2022/01/10 03:56:26;;;;;;;;;;;;;;;2.44;100.00;101093.41;4988373;28;19925;-75
2022/01/10 03:58:52;;;;;;;;;;;;;;;2.48;100.00;101105.25;4993247;28;19952;-75
2022/01/10 04:01:17;;;;;;;;;;;;;;;2.46;100.00;101101.94;4975116;28;20015;-74
2022/01/10 04:03:47;;;;;;;;;;;;;;;2.45;100.00;101108.00;4976358;28;19925;-75
2022/01/10 04:06:14;;;;;;;;;;;;;;;2.45;100.00;101108.00;4964662;28;19922;-76
2022/01/10 04:08:40;;;;;;;;;;;;;;;2.48;100.00;101123.38;4979348;28;20008;-74
2022/01/10 04:11:06;;;;;;;;;;;;;;;2.49;100.00;101130.25;4974042;28;19943;-75
2022/01/10 04:13:33;;;;;;;;;;;;;;;2.55;100.00;101135.09;4958018;28;19927;-75
2022/01/10 04:15:59;;;;;;;;;;;;;;;2.50;100.00;101137.09;4977132;28;19928;-74
2022/01/10 04:18:24;;;;;;;;;;;;;;;2.28;100.00;101142.59;4986326;28;19922;-76
2022/01/10 04:20:50;;;;;;;;;;;;;;;2.24;100.00;101147.13;4989911;28;19917;-75
2022/01/10 04:23:16;;;;;;;;;;;;;;;2.22;100.00;101161.06;4972475;28;20633;-76
2022/01/10 04:25:42;;;;;;;;;;;;;;;2.13;100.00;101157.22;4988229;28;19924;-76
2022/01/10 04:28:08;;;;;;;;;;;;;;;2.14;100.00;101169.22;4960510;28;19958;-74
2022/01/10 04:30:34;;;;;;;;;;;;;;;2.12;100.00;101179.66;4981389;28;19913;-75
2022/01/10 04:33:03;;;;;;;;;;;;;;;2.07;100.00;101173.91;4975830;28;19925;-75
2022/01/10 04:35:29;;;;;;;;;;;;;;;2.06;100.00;101192.09;4938047;28;20308;-74
2022/01/10 04:37:55;;;;;;;;;;;;;;;2.02;100.00;101193.19;4977308;28;19921;-75
2022/01/10 04:40:22;;;;;;;;;;;;;;;2.02;100.00;101194.00;4960290;28;21149;-75
2022/01/10 04:42:47;;;;;;;;;;;;;;;2.00;100.00;101203.59;4972889;28;19949;-76
2022/01/10 04:45:13;;;;;;;;;;;;;;;2.01;100.00;101217.38;4996016;28;19996;-75
2022/01/10 04:47:38;;;;;;;;;;;;;;;1.99;100.00;101224.38;4980464;28;19918;-74
2022/01/10 04:52:32;;;;;;;;;;;;;;;1.95;100.00;101229.69;4974312;28;19918;-74
2022/01/10 04:54:58;;;;;;;;;;;;;;;1.94;100.00;101234.94;4988414;28;19922;-75
2022/01/10 04:57:23;;;;;;;;;;;;;;;1.93;100.00;101243.63;4982299;28;19949;-75
2022/01/10 04:59:49;;;;;;;;;;;;;;;1.94;100.00;101247.88;4961657;28;19972;-77
2022/01/10 05:02:15;;;;;;;;;;;;;;;1.91;100.00;101246.31;4957396;28;19917;-76
2022/01/10 05:04:41;;;;;;;;;;;;;;;1.90;100.00;101252.41;4977712;28;19924;-75
2022/01/10 05:07:06;;;;;;;;;;;;;;;1.90;100.00;101270.50;4994937;28;20328;-74
2022/01/10 05:09:32;;;;;;;;;;;;;;;1.89;100.00;101266.25;4972725;28;19917;-74
2022/01/10 05:12:05;;;;;;;;;;;;;;;1.89;100.00;101270.59;4983056;28;20689;-76
2022/01/10 05:14:32;;;;;;;;;;;;;;;1.89;100.00;101273.16;4970175;28;19993;-76
2022/01/10 05:16:58;;;;;;;;;;;;;;;1.86;100.00;101278.50;4972340;28;19917;-75
2022/01/10 05:19:24;;;;;;;;;;;;;;;1.83;100.00;101281.22;4956281;28;20717;-76
2022/01/10 05:21:49;;;;;;;;;;;;;;;1.79;100.00;101290.91;4994192;28;19932;-75
2022/01/10 05:24:15;;;;;;;;;;;;;;;1.77;100.00;101297.88;4967256;28;20307;-74
2022/01/10 05:26:40;;;;;;;;;;;;;;;1.73;100.00;101296.38;4979330;28;20040;-75
2022/01/10 05:29:08;;;;;;;;;;;;;;;1.71;100.00;101304.22;4984999;28;19922;-75
2022/01/10 05:31:34;;;;;;;;;;;;;;;1.73;100.00;101311.88;4974261;28;19924;-75
2022/01/10 05:34:30;;;;;;;;;;;;;;;1.71;100.00;101311.97;4973267;28;19922;-77
2022/01/10 05:36:55;;;;;;;;;;;;;;;1.68;100.00;101316.47;4971997;28;20032;-76
2022/01/10 05:39:21;;;;;;;;;;;;;;;1.73;100.00;101319.66;4972393;28;20032;-77
2022/01/10 05:41:46;;;;;;;;;;;;;;;1.70;100.00;101332.75;4974109;28;20301;-75
2022/01/10 05:44:13;;;;;;;;;;;;;;;1.67;100.00;101341.47;4973449;28;20026;-76
2022/01/10 05:46:42;;;;;;;;;;;;;;;1.68;100.00;101343.16;4980494;28;20368;-76
2022/01/10 05:49:08;;;;;;;;;;;;;;;1.67;100.00;101345.81;4970152;28;19924;-76
2022/01/10 05:51:36;;;;;;;;;;;;;;;1.66;100.00;101347.56;4975183;28;20383;-75
2022/01/10 05:54:21;;;;;;;;;;;;;;;1.66;100.00;101355.34;4975199;28;20013;-75
2022/01/10 05:56:47;;;;;;;;;;;;;;;1.64;100.00;101364.91;4968987;28;20012;-75
2022/01/10 05:59:13;;;;;;;;;;;;;;;1.67;100.00;101376.84;4960954;28;20380;-77
2022/01/10 06:01:39;;;;;;;;;;;;;;;1.65;100.00;101383.84;4955078;28;19917;-75
2022/01/10 06:04:13;;;;;;;;;;;;;;;1.66;100.00;101393.28;4969265;28;19917;-75
2022/01/10 06:06:41;;;;;;;;;;;;;;;1.59;100.00;101404.84;4964034;28;20402;-75
2022/01/10 06:09:07;;;;;;;;;;;;;;;1.58;100.00;101403.97;4946666;28;19918;-75
2022/01/10 06:11:34;;;;;;;;;;;;;;;1.60;100.00;101414.25;4996094;28;19917;-74
2022/01/10 06:14:01;;;;;;;;;;;;;;;1.59;100.00;101416.00;4970960;28;20008;-74
2022/01/10 06:16:28;;;;;;;;;;;;;;;1.58;100.00;101423.84;4972935;28;20008;-76
2022/01/10 06:18:54;;;;;;;;;;;;;;;1.60;100.00;101424.59;4982529;28;20434;-74
2022/01/10 06:21:20;;;;;;;;;;;;;;;1.61;100.00;101432.28;4972391;28;19917;-76
2022/01/10 06:23:45;;;;;;;;;;;;;;;1.61;100.00;101427.13;4962735;28;19917;-76
2022/01/10 06:26:14;;;;;;;;;;;;;;;1.62;100.00;101436.56;4953496;28;19956;-75
2022/01/10 06:28:39;;;;;;;;;;;;;;;1.60;100.00;101440.09;4977048;28;19952;-74
2022/01/10 06:31:07;;;;;;;;;;;;;;;1.59;100.00;101446.22;4969865;28;20376;-75
2022/01/10 06:33:40;;;;;;;;;;;;;;;1.59;100.00;101451.38;4983265;28;19917;-76
2022/01/10 06:36:08;;;;;;;;;;;;;;;1.59;100.00;101457.38;4956171;28;19917;-75
2022/01/10 06:38:36;;;;;;;;;;;;;;;1.59;100.00;101461.72;4971022;28;19922;-76
2022/01/10 06:41:02;;;;;;;;;;;;;;;1.57;100.00;101466.13;4968380;28;20430;-76
2022/01/10 06:43:28;;;;;;;;;;;;;;;1.56;100.00;101465.25;4991865;28;19996;-76
2022/01/10 06:45:54;;;;;;;;;;;;;;;1.57;100.00;101477.31;4971460;28;20032;-75
2022/01/10 06:48:19;;;;;;;;;;;;;;;1.57;100.00;101481.66;4972003;28;19918;-75
2022/01/10 06:50:47;;;;;;;;;;;;;;;1.54;100.00;101487.78;4966184;28;19917;-75
2022/01/10 06:53:17;;;;;;;;;;;;;;;1.53;100.00;101499.88;4973963;28;20016;-73
2022/01/10 06:55:43;;;;;;;;;;;;;;;1.54;100.00;101508.47;4988835;28;19917;-75
2022/01/10 06:58:09;;;;;;;;;;;;;;;1.51;100.00;101519.78;4944490;28;19927;-75
2022/01/10 07:00:36;;;;;;;;;;;;;;;1.52;100.00;101526.63;4995118;28;19925;-75
2022/01/10 07:03:03;;;;;;;;;;;;;;;1.51;100.00;101529.31;4973780;28;20694;-76
2022/01/10 07:05:31;;;;;;;;;;;;;;;1.51;100.00;101532.72;4986017;28;19940;-75
2022/01/10 07:08:05;;;;;;;;;;;;;;;1.57;100.00;101552.28;4989790;28;19917;-75
2022/01/10 07:10:50;;;;;;;;;;;;;;;1.51;100.00;101552.56;4977138;28;19914;-75
2022/01/10 07:13:16;;;;;;;;;;;;;;;1.60;100.00;101564.25;4966347;28;19925;-76
2022/01/10 07:15:45;;;;;;;;;;;;;;;1.60;100.00;101564.25;4974317;28;19925;-75
2022/01/10 07:18:11;;;;;;;;;;;;;;;1.60;100.00;101572.00;4972469;28;19921;-76
2022/01/10 07:20:42;;;;;;;;;;;;;;;1.57;100.00;101577.31;4959892;28;19968;-76
2022/01/10 07:23:07;;;;;;;;;;;;;;;1.56;100.00;101581.63;4976956;28;19913;-75
2022/01/10 07:25:33;;;;;;;;;;;;;;;1.53;100.00;101587.78;4990846;28;20009;-75
2022/01/10 07:27:58;;;;;;;;;;;;;;;1.53;100.00;101598.13;4979502;28;20401;-75
2022/01/10 07:30:25;;;;;;;;;;;;;;;1.55;100.00;101605.81;5004805;28;19926;-75
2022/01/10 07:32:51;;;;;;;;;;;;;;;1.60;100.00;101614.22;4976653;28;19914;-75
2022/01/10 07:35:16;;;;;;;;;;;;;;;1.58;100.00;101612.59;4976744;28;19924;-75
2022/01/10 07:37:42;;;;;;;;;;;;;;;1.59;100.00;101619.47;4975394;28;20290;-75
2022/01/10 07:40:08;;;;;;;;;;;;;;;1.60;100.00;101627.16;4973671;28;19917;-75
2022/01/10 07:42:33;;;;;;;;;;;;;;;1.59;100.00;101630.66;4978209;28;19921;-75
2022/01/10 07:45:08;;;;;;;;;;;;;;;1.57;100.00;101635.03;4990430;28;19964;-75
2022/01/10 07:47:34;;;;;;;;;;;;;;;1.57;100.00;101639.38;5004739;28;19917;-75
2022/01/10 07:50:00;;;;;;;;;;;;;;;1.59;100.00;101650.50;5005539;28;20653;-76
2022/01/10 07:52:26;;;;;;;;;;;;;;;1.60;100.00;101659.91;5000449;28;19925;-75
2022/01/10 07:54:52;;;;;;;;;;;;;;;1.61;100.00;101661.63;4991517;28;19917;-75
2022/01/10 07:57:18;;;;;;;;;;;;;;;1.60;100.00;101671.13;4992593;28;19952;-74
2022/01/10 07:59:44;;;;;;;;;;;;;;;1.61;100.00;101677.13;4980681;28;19913;-76
2022/01/10 08:02:10;;;;;;;;;;;;;;;1.63;100.00;101672.72;4971457;28;20007;-75
2022/01/10 08:04:36;;;;;;;;;;;;;;;1.65;100.00;101682.09;4990927;28;22176;-75
2022/01/10 08:07:03;;;;;;;;;;;;;;;1.66;100.00;101693.31;4989999;28;19918;-77
2022/01/10 08:09:28;;;;;;;;;;;;;;;1.69;100.00;101693.16;4994549;28;20336;-75
2022/01/10 08:11:59;;;;;;;;;;;;;;;1.73;100.00;101707.63;4971434;28;19933;-75
2022/01/10 08:14:29;;;;;;;;;;;;;;;1.73;100.00;101708.50;4970536;28;19945;-76
2022/01/10 08:16:55;;;;;;;;;;;;;;;1.73;100.00;101713.66;4971995;28;19917;-76
2022/01/10 08:19:20;;;;;;;;;;;;;;;1.72;100.00;101717.13;4975710;28;19928;-75
2022/01/10 08:21:46;;;;;;;;;;;;;;;1.77;100.00;101716.94;4998090;28;19918;-75
2022/01/10 08:24:12;;;;;;;;;;;;;;;1.78;100.00;101725.56;4990130;28;20622;-75
2022/01/10 08:26:37;;;;;;;;;;;;;;;1.79;100.00;101734.97;4979726;28;19918;-77
2022/01/10 08:29:03;;;;;;;;;;;;;;;1.84;100.00;101730.47;4971490;28;20380;-76
2022/01/10 08:31:29;;;;;;;;;;;;;;;1.87;100.00;101740.69;4960120;28;19922;-75
2022/01/10 08:33:54;;;;;;;;;;;;;;;1.90;100.00;101745.72;4996235;28;19913;-75
2022/01/10 08:36:20;;;;;;;;;;;;;;;1.91;100.00;101750.81;4996944;28;19917;-73
2022/01/10 08:38:46;;;;;;;;;;;;;;;1.94;100.00;101755.00;4990007;28;19939;-75
2022/01/10 08:41:11;;;;;;;;;;;;;;;1.98;100.00;101764.34;4972312;28;20020;-75
2022/01/10 08:43:37;;;;;;;;;;;;;;;1.94;100.00;101773.13;4989902;28;19953;-75
2022/01/10 08:46:03;;;;;;;;;;;;;;;1.98;100.00;101774.69;4979319;28;20082;-77
2022/01/10 08:48:28;;;;;;;;;;;;;;;1.97;100.00;101775.59;4967969;28;20495;-75
2022/01/10 08:50:54;;;;;;;;;;;;;;;1.95;100.00;101778.25;4974378;28;20001;-77
2022/01/10 08:53:19;;;;;;;;;;;;;;;1.98;100.00;101795.41;4959453;28;19972;-76
2022/01/10 08:55:46;;;;;;;;;;;;;;;2.04;100.00;101797.72;4973934;28;19924;-76
2022/01/10 08:58:12;;;;;;;;;;;;;;;2.05;100.00;101793.38;4971231;28;19995;-76
2022/01/10 09:00:37;;;;;;;;;;;;;;;2.05;100.00;101799.38;4980984;28;19949;-76
2022/01/10 09:03:03;;;;;;;;;;;;;;;2.03;100.00;101797.78;5001786;28;19913;-76
2022/01/10 09:05:29;;;;;;;;;;;;;;;2.09;100.00;101802.69;5003837;28;19922;-75
2022/01/10 09:07:58;;;;;;;;;;;;;;;2.12;100.00;101803.41;5008505;28;20482;-76
2022/01/10 09:10:24;;;;;;;;;;;;;;;2.15;100.00;101812.81;4989212;28;19949;-75
2022/01/10 09:12:49;;;;;;;;;;;;;;;2.18;100.00;101819.59;4996923;28;19917;-76
2022/01/10 09:15:15;;;;;;;;;;;;;;;2.21;100.00;101822.06;4988498;28;20384;-75
2022/01/10 09:17:41;;;;;;;;;;;;;;;2.25;100.00;101827.03;5007268;28;19960;-75
2022/01/10 09:20:06;;;;;;;;;;;;;;;2.25;100.00;101829.59;4960076;28;19917;-75
2022/01/10 09:22:32;;;;;;;;;;;;;;;2.23;100.00;101834.00;4956095;28;19918;-75
2022/01/10 09:24:57;;;;;;;;;;;;;;;2.27;100.00;101845.91;4970220;28;19968;-75
2022/01/10 09:27:23;;;;;;;;;;;;;;;2.25;100.00;101847.72;5002447;28;19924;-76
2022/01/10 09:29:49;;;;;;;;;;;;;;;2.23;100.00;101849.53;4989602;28;20013;-75
2022/01/10 09:32:15;;;;;;;;;;;;;;;2.23;100.00;101848.72;4995618;28;20027;-74
2022/01/10 09:34:40;;;;;;;;;;;;;;;2.22;100.00;101853.03;5000083;28;19977;-76
2022/01/10 09:37:06;;;;;;;;;;;;;;;2.24;100.00;101864.19;4970645;28;19924;-75
2022/01/10 09:39:31;;;;;;;;;;;;;;;2.21;100.00;101860.88;4990570;28;20713;-76
2022/01/10 09:41:57;;;;;;;;;;;;;;;2.25;100.00;101868.44;4971153;28;19918;-75
2022/01/10 09:44:23;;;;;;;;;;;;;;;2.29;100.00;101862.22;4974397;28;19941;-75
2022/01/10 09:46:49;;;;;;;;;;;;;;;2.36;100.00;101874.94;5008001;28;19921;-75
2022/01/10 09:49:16;;;;;;;;;;;;;;;2.39;100.00;101873.03;4998928;28;19918;-75
2022/01/10 09:51:41;;;;;;;;;;;;;;;2.57;100.00;101875.75;4979212;28;19918;-76
2022/01/10 09:54:07;;;;;;;;;;;;;;;2.48;100.00;101885.56;4977508;28;20303;-76
2022/01/10 09:56:32;;;;;;;;;;;;;;;2.50;100.00;101885.50;4972716;28;20432;-75
2022/01/10 09:58:59;;;;;;;;;;;;;;;2.49;100.00;101897.63;4971856;28;19924;-77
2022/01/10 10:01:25;;;;;;;;;;;;;;;2.50;100.00;101895.88;4938286;28;19925;-75
2022/01/10 10:03:50;;;;;;;;;;;;;;;2.56;100.00;101905.97;4981611;28;19918;-75
2022/01/10 10:06:17;;;;;;;;;;;;;;;2.53;100.00;101917.31;4937846;28;19913;-75
2022/01/10 10:08:43;;;;;;;;;;;;;;;2.53;100.00;101921.66;4970953;28;19918;-76
2022/01/10 10:11:09;;;;;;;;;;;;;;;2.59;100.00;101923.97;4970500;28;20387;-76
2022/01/10 10:13:56;;;;;;;;;;;;;;;2.63;100.00;101930.69;5000796;28;19992;-75
2022/01/10 10:16:22;;;;;;;;;;;;;;;2.55;100.00;101937.97;4986596;28;19925;-76
2022/01/10 10:18:48;;;;;;;;;;;;;;;2.59;100.00;101943.88;4998660;28;20362;-76
2022/01/10 10:21:14;;;;;;;;;;;;;;;2.62;100.00;101946.31;5001459;28;19917;-76
2022/01/10 10:23:41;;;;;;;;;;;;;;;2.67;100.00;101952.97;4977485;28;20013;-75
2022/01/10 10:26:06;;;;;;;;;;;;;;;2.73;100.00;101957.06;4955159;28;20694;-75
2022/01/10 10:28:35;;;;;;;;;;;;;;;2.79;100.00;101955.94;4974004;28;19918;-76
2022/01/10 10:31:00;;;;;;;;;;;;;;;2.83;100.00;101967.88;4957345;28;19921;-76
2022/01/10 10:33:26;;;;;;;;;;;;;;;2.89;100.00;101972.78;4969570;28;19984;-76
2022/01/10 10:35:56;;;;;;;;;;;;;;;2.92;100.00;101972.69;5006482;28;19913;-76
2022/01/10 10:38:24;;;;;;;;;;;;;;;3.00;100.00;101986.13;4970809;28;19922;-76
2022/01/10 10:40:49;;;;;;;;;;;;;;;3.01;100.00;101984.38;4988130;28;19976;-75
2022/01/10 10:43:15;;;;;;;;;;;;;;;3.03;100.00;101987.72;4959143;28;20331;-75
2022/01/10 10:45:41;;;;;;;;;;;;;;;3.05;100.00;101988.50;4993466;28;19964;-77
2022/01/10 10:48:08;;;;;;;;;;;;;;;3.07;100.00;101989.28;4971998;28;20030;-75
2022/01/10 10:50:44;;;;;;;;;;;;;;;3.11;100.00;101996.88;4957584;28;19956;-75
2022/01/10 10:53:13;;;;;;;;;;;;;;;3.11;100.00;102001.22;4989984;28;20446;-76
2022/01/10 10:55:41;;;;;;;;;;;;;;;3.10;100.00;102007.31;4983975;28;19913;-75
2022/01/10 10:58:07;;;;;;;;;;;;;;;3.10;100.00;102005.53;4961934;28;20016;-75
2022/01/10 11:00:32;;;;;;;;;;;;;;;3.14;100.00;102008.00;4996186;28;19981;-75
2022/01/10 11:02:58;;;;;;;;;;;;;;;3.15;100.00;102010.53;4992517;28;20012;-75
2022/01/10 11:05:24;;;;;;;;;;;;;;;3.22;100.00;102016.28;4992611;28;20680;-76
2022/01/10 11:07:49;;;;;;;;;;;;;;;3.20;100.00;102015.50;4992486;28;19917;-76
2022/01/10 11:10:15;;;;;;;;;;;;;;;3.18;100.00;102023.34;4991671;28;20337;-76
2022/01/10 11:12:44;;;;;;;;;;;;;;;3.18;100.00;102027.72;4978237;28;19917;-76
2022/01/10 11:15:09;;;;;;;;;;;;;;;3.20;100.00;102023.28;4971695;28;19925;-75
2022/01/10 11:17:39;;;;;;;;;;;;;;;3.15;100.00;102033.88;4982919;28;19940;-75
2022/01/10 11:20:09;;;;;;;;;;;;;;;3.16;100.00;102038.13;5005746;28;20063;-75
2022/01/10 11:22:36;;;;;;;;;;;;;;;3.18;100.00;102038.06;4998516;28;19913;-76
2022/01/10 11:25:03;;;;;;;;;;;;;;;3.19;100.00;102042.38;4990508;28;19953;-76
2022/01/10 11:27:30;;;;;;;;;;;;;;;3.20;100.00;102046.63;4975077;28;20348;-76
2022/01/10 11:29:57;;;;;;;;;;;;;;;3.18;100.00;102046.69;4998580;28;20545;-75
2022/01/10 11:32:41;;;;;;;;;;;;;;;3.15;100.00;102046.00;4976366;28;20367;-76
2022/01/10 11:35:07;;;;;;;;;;;;;;;3.15;100.00;102040.81;4975288;28;20328;-75
2022/01/10 11:37:33;;;;;;;;;;;;;;;3.24;100.00;102043.00;4974183;28;19971;-76
2022/01/10 11:39:58;;;;;;;;;;;;;;;3.25;100.00;102048.13;4992608;28;20034;-76
2022/01/10 11:42:24;;;;;;;;;;;;;;;3.30;100.00;102050.53;4976413;28;19921;-76
2022/01/10 11:45:09;;;;;;;;;;;;;;;3.33;100.00;102054.72;4981474;28;19924;-75
2022/01/10 11:47:53;;;;;;;;;;;;;;;3.34;100.00;102062.44;4973799;28;19914;-75
2022/01/10 11:50:29;;;;;;;;;;;;;;;3.29;100.00;102067.81;4997704;28;19924;-75
2022/01/10 11:52:55;;;;;;;;;;;;;;;3.31;100.00;102066.03;4994387;28;19925;-75
2022/01/10 11:55:30;;;;;;;;;;;;;;;3.20;100.00;102063.06;4990838;28;19917;-75
2022/01/10 11:58:05;;;;;;;;;;;;;;;3.16;100.00;102065.81;4998225;28;20459;-76
2022/01/10 12:00:35;;;;;;;;;;;;;;;3.24;100.00;102071.50;5001158;28;20237;-76
2022/01/10 12:03:01;;;;;;;;;;;;;;;3.23;100.00;102075.03;4975640;28;20376;-77
2022/01/10 12:05:27;;;;;;;;;;;;;;;3.17;100.00;102085.69;4958920;28;20000;-75
2022/01/10 12:07:52;;;;;;;;;;;;;;;3.08;100.00;102089.50;4972276;28;20021;-76
2022/01/10 12:10:18;;;;;;;;;;;;;;;3.08;100.00;102094.69;4975584;28;19922;-76
2022/01/10 12:12:45;;;;;;;;;;;;;;;3.04;100.00;102093.13;4974516;28;19914;-75
2022/01/10 12:15:11;;;;;;;;;;;;;;;3.01;100.00;102094.06;4976249;28;19917;-76
2022/01/10 12:17:38;;;;;;;;;;;;;;;2.99;100.00;102103.66;4985326;28;19923;-76
2022/01/10 12:20:08;;;;;;;;;;;;;;;2.97;100.00;102110.66;4961230;28;19925;-75
2022/01/10 12:22:33;;;;;;;;;;;;;;;2.92;100.00;102118.66;4995703;28;19921;-75
2022/01/10 12:24:59;;;;;;;;;;;;;;;2.92;100.00;102129.00;4980289;28;19961;-76
2022/01/10 12:27:24;;;;;;;;;;;;;;;2.98;100.00;102129.69;4995992;28;19917;-77
2022/01/10 12:29:50;;;;;;;;;;;;;;;2.96;100.00;102134.06;4962912;28;20529;-75
2022/01/10 12:32:15;;;;;;;;;;;;;;;2.85;100.00;102129.34;4959429;28;19924;-75
2022/01/10 12:34:42;;;;;;;;;;;;;;;2.97;100.00;102139.19;4998159;28;19917;-75
2022/01/10 12:37:08;;;;;;;;;;;;;;;2.96;100.00;102139.25;4974046;28;20448;-75
2022/01/10 12:39:38;;;;;;;;;;;;;;;2.89;100.00;102144.69;4973644;28;20036;-75
2022/01/10 12:42:04;;;;;;;;;;;;;;;2.88;100.00;102137.81;4976200;28;19917;-75
2022/01/10 12:44:29;;;;;;;;;;;;;;;2.93;100.00;102141.06;4976373;28;19943;-75